首页
METAR-TAF:

METAR-TAF

机场 :

Gallup, 新墨西哥州, 美国

纬度: 35-30-40N, 经度: 108-47-22W, 海拔: 1973米

当前天气观测

该预报发布于1小时和10分钟前的08:53 UTC
风速3节,风向
温度 -4°C
湿度 63%
气压 1020 hPa
能見度: 16.1公里
天空无云

METAR: KGUP 290853Z AUTO 09003KT 10SM CLR M04/M10 A3011 RMK AO2 SLP184 T10391100 57006

时间: 04:03 (10:03 UTC)

预报

该预报发布于4小时和43分钟前的05:20 UTC
预报有效从29日的 06点(UTC)到 30日的 06点(UTC)
风速3节,风向多变
能見度: 10公里
散云层高于10000英尺
多云层高于20000英尺
从 29日的 1800点(UTC)
风速10节,风向西南
能見度: 10公里
多云层高于10000英尺
从 29日的 2000点(UTC)
风速16节,风向西南,有时为24节阵风
能見度: 10公里
多云层高于12000英尺
从 30日的 0200点(UTC)
风速10节,风向西南
能見度: 10公里
多云层高于10000英尺

TAF: KGUP 290520Z 2906/3006 VRB03KT P6SM SCT100 BKN200 FM291800 22010KT P6SM BKN100 FM292000 23016G24KT P6SM BKN120 FM300200 23010KT P6SM BKN100

超过4000个机场的气象观测和天气预报(METAR&TAF报告)。

可查询的气象台以黄色和红色小点在地图上表示。

将鼠标移到小点上方,可查看气象台名称。

然后点击查看天气观测和预报。

如需切换地图:点击带黑十字的绿色按钮放大地图;点击带横线的绿色按钮缩小地图;或者点击绿色箭头查看邻近地区的地图。


METAR-TAF: